x

New London Ledge Ct - Ledge Light Weather Station (ldlc3) Weather Station

7:45 - Thu 29th Jun 2017 All times are EDT. -4 hours from GMT.

  • Wind
    8mph, 9mph gusts
  • Luft Temp 66°f
  • Sea Pressure 1021mb
  • New London Ledge Ct - Ledge Light Weather Station
  • New London Ledge Ct - Ledge Light Weather Station

More Historic Weather Station data

Upgrade to MSW Pro to gain access to the past 30 days of data for over 8000 Wavebouys and Weather Stations around the globe.

Join Pro

Comparision Forecast

View Surf forecast
   
Do 06/29 7:45 8 9 mph 1021mb 66f
7:30 6 6 mph 1020.7mb 66f
7:15 6 7 mph 1020.7mb 65f
7:00 8 9 mph 1020.7mb 66f
6:45 8 10 mph 1020.8mb 66f
6:30 10 11 mph 1020.8mb 66f
6:15 11 14 mph 1020.7mb 66f
6:00 9 11 mph 1020.6mb 66f
5:45 8 10 mph 1020.3mb 65f
5:30 10 11 mph 1020.3mb 65f
5:15 11 11 mph 1020.2mb 65f
5:00 10 11 mph 1020.1mb 65f
4:45 9 10 mph 1020.2mb 65f
4:30 9 10 mph 1019.9mb 65f
4:15 9 10 mph 1019.8mb 65f
4:00 9 10 mph 1019.8mb 65f
3:45 7 8 mph 1019.8mb 64f
3:30 8 8 mph 1019.6mb 65f
3:15 9 10 mph 1019.5mb 66f
3:00 11 13 mph 1019.6mb 66f
2:30 10 11 mph 1019.4mb 66f
2:15 10 10 mph 1019.3mb 66f
2:00 10 11 mph 1019.1mb 66f
1:45 9 10 mph 1019.1mb 66f
1:30 9 9 mph 1019.1mb 66f
1:15 8 9 mph 1019.2mb 66f
1:00 7 7 mph 1019.2mb 66f
Mi 06/28 7:45 18 20 mph 1017.8mb 70f
7:30 15 17 mph 1017.8mb 69f
7:15 10 13 mph 1017.8mb 67f
7:00 11 13 mph 1017.8mb 68f
6:45 17 21 mph 1017.5mb 69f
6:30 18 21 mph 1017.5mb 69f
6:15 14 15 mph 1017.5mb 67f
6:00 15 18 mph 1017.6mb 68f
5:45 21 22 mph 1017.2mb 69f
5:30 18 21 mph 1017.3mb 68f
5:15 18 22 mph 1017mb 68f
5:00 20 22 mph 1017mb 68f
4:45 21 23 mph 1016.9mb 68f
4:30 21 23 mph 1017.1mb 68f
4:15 20 22 mph 1017.2mb 67f
4:00 18 21 mph 1017mb 68f
3:45 18 21 mph 1017.5mb 67f
3:30 17 21 mph 1017.8mb 67f
3:15 22 24 mph 1017.9mb 67f
3:00 20 22 mph 1018.1mb 67f
2:45 23 25 mph 1018mb 67f
2:30 22 25 mph 1017.9mb 67f
2:15 22 25 mph 1017.9mb 67f
2:00 20 23 mph 1018mb 67f
1:45 20 22 mph 1017.9mb 67f
1:30 20 22 mph 1017.8mb 67f
1:15 21 23 mph 1017.6mb 66f
1:00 22 24 mph 1017.6mb 66f
12:45 20 24 mph 1017.7mb 66f
12:30 20 22 mph 1017.6mb 66f
12:15 20 23 mph 1017.5mb 65f
12:00 18 23 mph 1017.5mb 66f
11:45 20 24 mph 1017.4mb 67f
11:30 16 18 mph 1017.5mb 70f
11:15 8 14 mph 1017.5mb 71f
11:00 9 10 mph 1017.5mb 69f
10:45 5 10 mph 1017.6mb 70f
10:30 13 17 mph 1017.4mb 70f
10:15 14 17 mph 1017.5mb 69f
10:00 18 22 mph 1017.5mb 68f
9:45 10 14 mph 1017.5mb 68f
9:30 10 15 mph 1017.5mb 67f
9:15 11 15 mph 1017.5mb 67f
9:00 14 16 mph 1017.6mb 66f
8:45 14 17 mph 1017.6mb 66f
8:30 8 11 mph 1017.7mb 65f
8:15 10 13 mph 1017.7mb 65f
8:00 8 10 mph 1017.5mb 64f
7:45 7 9 mph 1017.5mb 62f
7:30 8 10 mph 1017.5mb 63f
7:15 3 6 mph 1017.3mb 63f
7:00 2 3 mph 1017.4mb 63f
6:45 2 5 mph 1017.3mb 61f
6:30 6 7 mph 1017.1mb 59f
6:15 5 6 mph 1017mb 59f
6:00 5 6 mph 1016.8mb 60f
5:45 5 5 mph 1016.7mb 60f
5:30 5 6 mph 1016.7mb 60f
5:15 3 5 mph 1016.5mb 60f
5:00 6 7 mph 1016.5mb 60f
4:45 6 7 mph 1016.4mb 60f
4:30 5 5 mph 1016.3mb 60f
4:15 3 5 mph 1016mb 60f
4:00 3 5 mph 1015.9mb 60f
3:45 5 5 mph 1015.8mb 60f
3:30 3 5 mph 1015.7mb 60f
3:15 2 3 mph 1015.4mb 60f
3:00 3 3 mph 1015.4mb 61f
2:45 3 5 mph 1015.3mb 61f
2:30 5 6 mph 1015.1mb 61f
2:15 5 6 mph 1015.2mb 62f
2:00 5 7 mph 1015.1mb 62f
1:45 2 5 mph 1015.3mb 62f
1:30 2 3 mph 1015.3mb 63f
1:15  -  1 mph 1015.4mb 62f
1:00 2 2 mph 1015.3mb 63f
Di 06/27 7:45 16 18 mph 1012.5mb 68f
7:15 17 20 mph 1011.9mb 67f
7:00 17 18 mph 1011.9mb 68f
6:45 20 21 mph 1012mb 69f
6:30 17 20 mph 1012.3mb 69f
6:15 13 14 mph 1012.5mb 69f
6:00 9 11 mph 1012.7mb 68f
5:45 7 8 mph 1012.7mb 67f
5:30 11 11 mph 1012.8mb 67f
5:15 14 15 mph 1012.7mb 67f
5:00 17 20 mph 1012.5mb 66f
4:45 16 18 mph 1012.6mb 66f
4:30 18 20 mph 1012.9mb 66f
4:15 20 22 mph 1013.1mb 66f
4:00 18 20 mph 1013.1mb 66f
3:45 20 22 mph 1013.2mb 66f
3:30 15 17 mph 1013.4mb 66f
3:15 16 18 mph 1013.4mb 66f
3:00 16 17 mph 1013.6mb 66f
2:45 15 16 mph 1013.9mb 66f
2:30 15 16 mph 1014.2mb 66f
2:15 13 15 mph 1014.2mb 66f
2:00 11 13 mph 1014.6mb 65f
1:45 13 14 mph 1014.7mb 65f
1:30 16 18 mph 1014.7mb 65f
1:15 15 16 mph 1014.6mb 65f
1:00 13 15 mph 1015mb 64f
12:45 7 8 mph 1015.3mb 64f
12:30 13 14 mph 1015mb 64f
12:15 13 14 mph 1014.8mb 64f
12:00 16 17 mph 1014.5mb 64f
11:45 11 13 mph 1015.3mb 63f
11:30 9 10 mph 1015.4mb 64f
11:15 15 17 mph 1014.8mb 64f
11:00 14 15 mph 1014.8mb 65f
10:45 10 13 mph 1015mb 64f
10:30 14 16 mph 1015mb 64f
10:15 5 7 mph 1016mb 63f
10:00 9 37 mph 1016.3mb 65f
9:45 14 16 mph 1016.9mb 66f
9:30 5 8 mph 1015.9mb 66f
9:15 2 6 mph 1015.9mb 66f
9:00 1 2 mph 1016.5mb 66f
8:45 2 3 mph 1016.3mb 66f
8:30 8 13 mph 1016.1mb 65f
8:15 6 8 mph 1015.9mb 64f
8:00 6 7 mph 1015.7mb 63f
7:45 5 5 mph 1015.9mb 63f
7:30 3 5 mph 1015.9mb 63f
7:15 5 6 mph 1015.8mb 63f
7:00 3 3 mph 1015.7mb 63f
6:45 3 3 mph 1015.7mb 63f
6:30 3 5 mph 1015.6mb 64f
6:15 3 5 mph 1015.5mb 63f
6:00 6 6 mph 1015.3mb 63f
5:45 3 5 mph 1015.5mb 63f
5:30 5 6 mph 1015.5mb 63f
5:15 6 7 mph 1015.5mb 64f
5:00 7 9 mph 1015.3mb 64f
4:45 10 13 mph 1015.1mb 64f
4:30 11 15 mph 1015mb 64f
4:15 2 3 mph 1014.8mb 65f
4:00 3 5 mph 1014.9mb 65f
3:45 6 6 mph 1014.9mb 65f
3:30 5 6 mph 1015.2mb 65f
3:15 6 6 mph 1015.1mb 65f
3:00 5 6 mph 1015.1mb 64f
2:45 7 7 mph 1014.9mb 66f
2:30 7 8 mph 1014.8mb 65f
2:15 8 8 mph 1015mb 66f
2:00 8 9 mph 1014.9mb 66f
1:45 8 8 mph 1014.8mb 66f
1:30 6 8 mph 1014.9mb 66f
1:15 6 6 mph 1015.1mb 67f
1:00 7 8 mph 1015.3mb 67f
Mo 06/26 7:45 17 18 mph 1014.7mb 69f
7:15 18 21 mph 1014.4mb 69f
7:00 18 21 mph 1014.4mb 70f
6:45 17 20 mph 1014.5mb 70f
6:30 17 20 mph 1014.4mb 70f
6:15 16 18 mph 1014.3mb 70f
6:00 16 18 mph 1014.2mb 70f
5:45 16 18 mph 1014.2mb 70f
5:30 10 14 mph 1014.5mb 69f
5:15 13 16 mph 1014.7mb 69f
5:00 15 16 mph 1014.6mb 69f
4:45 14 16 mph 1014.6mb 68f
4:30 13 14 mph 1014.6mb 69f
4:15 15 16 mph 1014.7mb 69f
4:00 15 16 mph 1014.6mb 69f
3:45 16 17 mph 1014.7mb 69f
3:30 16 18 mph 1014.7mb 69f
3:15 16 18 mph 1015mb 68f
3:00 14 15 mph 1015.2mb 68f
2:45 13 15 mph 1015.2mb 68f
2:30 9 9 mph 1015.3mb 67f
2:15 10 13 mph 1015.3mb 67f
2:00 13 14 mph 1015.4mb 67f
1:45 15 17 mph 1015.4mb 68f
1:30 13 15 mph 1015.4mb 67f
1:15 14 15 mph 1015.4mb 67f
1:00 11 13 mph 1015.6mb 67f
12:45 14 15 mph 1015.8mb 67f
12:30 14 15 mph 1015.8mb 67f
12:15 13 15 mph 1015.9mb 67f
12:00 14 15 mph 1015.8mb 67f
11:45 15 16 mph 1015.8mb 67f
11:30 14 16 mph 1016mb 67f
11:15 14 15 mph 1016mb 67f
11:00 13 14 mph 1015.9mb 67f
10:45 14 15 mph 1015.9mb 67f
10:30 14 15 mph 1015.8mb 67f
10:15 11 11 mph 1015.8mb 67f
10:00 11 13 mph 1015.8mb 67f
9:45 11 13 mph 1015.9mb 67f
9:30 10 11 mph 1015.8mb 67f
9:15 9 10 mph 1015.9mb 67f
9:00 7 9 mph 1015.9mb 67f
8:45 8 9 mph 1015.8mb 66f
8:30 7 10 mph 1015.9mb 67f
8:15 5 6 mph 1015.7mb 65f
8:00 6 7 mph 1015.8mb 65f
7:45 6 7 mph 1015.9mb 65f
7:30 8 9 mph 1015.9mb 64f
7:15 8 9 mph 1015.8mb 64f
7:00 8 9 mph 1015.7mb 63f
6:45 7 8 mph 1015.5mb 63f
6:30 5 6 mph 1015.4mb 62f
6:15 5 5 mph 1015.3mb 63f
6:00 2 3 mph 1015.1mb 63f
5:45 3 5 mph 1014.9mb 63f
5:30 7 8 mph 1014.7mb 63f
5:15 7 7 mph 1014.6mb 63f
5:00 6 6 mph 1014.3mb 63f
4:45 3 5 mph 1014.2mb 63f
4:30 5 6 mph 1014mb 64f
4:15 2 5 mph 1013.9mb 65f
4:00 7 9 mph 1013.6mb 66f
3:45 5 7 mph 1013.6mb 66f
3:30 11 13 mph 1013.3mb 66f
3:15 13 15 mph 1013.5mb 66f
3:00 13 14 mph 1013.6mb 66f
2:45 13 15 mph 1013.9mb 66f
2:30 18 23 mph 1013.7mb 67f
2:15 16 20 mph 1013.8mb 67f
2:00 13 17 mph 1013.9mb 68f
1:45 14 16 mph 1013.8mb 68f
1:30 11 13 mph 1013.6mb 68f
1:15 10 13 mph 1013.5mb 68f
1:00 9 13 mph 1013.4mb 68f
So 06/25 7:45 7 9 mph 1013.1mb 69f
7:15 8 9 mph 1013mb 69f
7:00 15 16 mph 1012.7mb 70f
6:45 16 18 mph 1012.7mb 70f
6:30 15 16 mph 1012.6mb 70f
6:15 14 16 mph 1012.5mb 70f
6:00 15 16 mph 1012.5mb 69f
5:45 11 14 mph 1012.6mb 69f
5:30 14 17 mph 1012.5mb 70f
5:15 11 13 mph 1012.8mb 69f
5:00 16 17 mph 1012.7mb 70f
4:45 15 16 mph 1012.7mb 70f
4:30 17 18 mph 1012.6mb 70f
4:15 16 17 mph 1012.7mb 71f
4:00 15 16 mph 1012.7mb 70f
3:45 16 17 mph 1012.7mb 69f
3:30 13 14 mph 1012.9mb 68f
3:15 14 15 mph 1013mb 69f
3:00 11 14 mph 1013.1mb 71f
2:45 14 14 mph 1013.3mb 70f
2:30 10 11 mph 1013.5mb 70f
2:15 10 10 mph 1013.6mb 70f
2:00 14 14 mph 1013.6mb 69f
1:45 11 13 mph 1013.7mb 69f
1:30 14 15 mph 1013.9mb 68f
1:15 13 13 mph 1014.1mb 67f
1:00 14 14 mph 1014.1mb 67f
12:45 13 14 mph 1014.3mb 68f